createdAt,value
2023-03-08T00:02:19.123Z,95150.59
2023-03-08T00:04:46.087Z,95150.41
2023-03-08T00:07:13.010Z,95146.38
2023-03-08T00:09:39.865Z,95153.63
2023-03-08T00:12:07.578Z,95153.63
2023-03-08T00:14:34.527Z,95163.06
2023-03-08T00:17:02.597Z,95161.47
2023-03-08T00:19:29.704Z,95158.84
2023-03-08T00:21:56.543Z,95161.28
2023-03-08T00:24:23.827Z,95166.06
2023-03-08T00:26:50.639Z,95163.06
2023-03-08T00:29:17.521Z,95164.88
2023-03-08T00:31:44.441Z,95173.25
2023-03-08T00:34:11.357Z,95172.88
2023-03-08T00:36:38.137Z,95170.09
2023-03-08T00:39:05.394Z,95180.31
2023-03-08T00:41:32.222Z,95174.91
2023-03-08T00:43:59.063Z,95187.75
2023-03-08T00:46:26.380Z,95178.53
2023-03-08T00:48:53.431Z,95170.91
2023-03-08T00:51:21.763Z,95175.09
2023-03-08T00:53:49.549Z,95171.28
2023-03-08T00:56:16.787Z,95175.66
2023-03-08T00:58:43.733Z,95168.06
2023-03-08T01:01:16.901Z,95168.06
2023-03-08T01:03:44.240Z,95169.44
2023-03-08T01:06:14.331Z,95171.88
2023-03-08T01:08:42.642Z,95169.28
2023-03-08T01:11:18.539Z,95164.44
2023-03-08T01:13:45.654Z,95163.84
2023-03-08T01:16:22.511Z,95167.63
2023-03-08T01:18:49.731Z,95160.03
2023-03-08T01:21:17.674Z,95167.81
2023-03-08T01:23:44.593Z,95159.63
2023-03-08T01:26:15.009Z,95148.38
2023-03-08T01:28:42.536Z,95150.38
2023-03-08T01:31:14.456Z,95142.34
2023-03-08T01:33:43.169Z,95152.16
2023-03-08T01:36:13.428Z,95149.59
2023-03-08T01:38:40.244Z,95152.69
2023-03-08T01:41:39.065Z,95155.19
2023-03-08T01:44:14.612Z,95147.56
2023-03-08T01:46:41.845Z,95151.94
2023-03-08T01:49:20.503Z,95145.72
2023-03-08T01:52:09.107Z,95150.78
2023-03-08T01:54:43.572Z,95147.34
2023-03-08T01:57:28.618Z,95155.97
2023-03-08T02:00:04.345Z,95141.94
2023-03-08T02:02:40.306Z,95141.31
2023-03-08T02:05:08.414Z,95137.53
2023-03-08T02:07:35.259Z,95137.28
2023-03-08T02:10:02.837Z,95137.03
2023-03-08T02:12:29.785Z,95134.44
2023-03-08T02:14:58.544Z,95121.81
2023-03-08T02:17:26.934Z,95121.59
2023-03-08T02:20:07.981Z,95115.72
2023-03-08T02:22:43.077Z,95122.94
2023-03-08T02:25:28.129Z,95130.53
2023-03-08T02:27:55.115Z,95122.06
2023-03-08T02:30:31.790Z,95126.41
2023-03-08T02:32:58.604Z,95132.78
2023-03-08T02:35:26.595Z,95125.59
2023-03-08T02:37:53.479Z,95114.25
2023-03-08T02:40:20.536Z,95123.28
2023-03-08T02:42:47.363Z,95121.25
2023-03-08T02:45:14.491Z,95116.25
2023-03-08T02:47:42.259Z,95117.25
2023-03-08T02:50:10.329Z,95114.63
2023-03-08T02:52:37.160Z,95115.25
2023-03-08T02:55:04.581Z,95111.22
2023-03-08T02:57:31.431Z,95112.81
2023-03-08T02:59:58.217Z,95104.28
2023-03-08T03:02:25.077Z,95107.06
2023-03-08T03:04:51.904Z,95111.13
2023-03-08T03:07:18.946Z,95102.09
2023-03-08T03:09:45.735Z,95107.81
2023-03-08T03:12:12.567Z,95107.91
2023-03-08T03:14:39.383Z,95108.75
2023-03-08T03:17:06.211Z,95099.91
2023-03-08T03:19:33.157Z,95106.69
2023-03-08T03:24:26.889Z,95099.88
2023-03-08T03:26:53.978Z,95102.44
2023-03-08T03:29:21.214Z,95098.66
2023-03-08T03:31:48.629Z,95101.59
2023-03-08T03:34:15.537Z,95105.44
2023-03-08T03:36:42.395Z,95109.03
2023-03-08T03:39:09.243Z,95102.97
2023-03-08T03:41:36.247Z,95101.69
2023-03-08T03:44:03.161Z,95100.34
2023-03-08T03:46:30.081Z,95100.25
2023-03-08T03:48:56.995Z,95104.56
2023-03-08T03:51:24.309Z,95109.34
2023-03-08T03:53:51.156Z,95109.84
2023-03-08T03:56:23.971Z,95101.53
2023-03-08T03:58:52.037Z,95105.13
2023-03-08T04:01:28.882Z,95101.69
2023-03-08T04:03:57.069Z,95101.34
2023-03-08T04:06:30.003Z,95103.72
2023-03-08T04:09:06.161Z,95091.72
2023-03-08T04:11:39.014Z,95091.91
2023-03-08T04:14:06.802Z,95086.09
2023-03-08T04:16:37.362Z,95089.84
2023-03-08T04:19:22.474Z,95095.59
2023-03-08T04:21:49.367Z,95089.19
2023-03-08T04:24:16.183Z,95081.81
2023-03-08T04:26:43.025Z,95077.53
2023-03-08T04:29:10.366Z,95081.19
2023-03-08T04:31:37.345Z,95081.00
2023-03-08T04:34:05.509Z,95070.00
2023-03-08T04:36:32.683Z,95067.72
2023-03-08T04:38:59.770Z,95063.56
2023-03-08T04:41:26.888Z,95059.59
2023-03-08T04:43:56.510Z,95049.22
2023-03-08T04:46:28.429Z,95042.03
2023-03-08T04:48:55.982Z,95044.47
2023-03-08T04:51:25.452Z,95042.50
2023-03-08T04:53:52.873Z,95034.06
2023-03-08T04:56:19.750Z,95040.88
2023-03-08T04:58:46.898Z,95038.59
2023-03-08T05:01:20.266Z,95033.75
2023-03-08T05:03:49.620Z,95039.81
2023-03-08T05:06:17.609Z,95012.31
2023-03-08T05:08:44.805Z,95010.34
2023-03-08T05:11:26.118Z,95006.38
2023-03-08T05:13:57.881Z,94996.72
2023-03-08T05:16:26.313Z,94999.19
2023-03-08T05:18:53.305Z,94988.44
2023-03-08T05:21:22.248Z,94990.31
2023-03-08T05:23:49.159Z,94983.56
2023-03-08T05:26:18.007Z,94984.91
2023-03-08T05:28:45.420Z,94977.88
2023-03-08T05:31:18.892Z,94979.13
2023-03-08T05:33:50.890Z,94980.94
2023-03-08T05:36:19.042Z,94977.78
2023-03-08T05:38:45.917Z,94983.41
2023-03-08T05:41:15.729Z,94978.84
2023-03-08T05:43:43.379Z,94969.47
2023-03-08T05:46:16.653Z,94970.66
2023-03-08T05:48:43.793Z,94955.88
2023-03-08T05:51:14.973Z,94957.22
2023-03-08T05:53:42.853Z,94951.44
2023-03-08T05:56:13.197Z,94954.03
2023-03-08T05:58:43.096Z,94953.41
2023-03-08T06:01:16.820Z,94956.84
2023-03-08T06:03:50.119Z,94965.50
2023-03-08T06:06:18.768Z,94973.13
2023-03-08T06:08:46.517Z,94979.19
2023-03-08T06:11:13.971Z,94974.44
2023-03-08T06:13:41.217Z,94980.47
2023-03-08T06:16:09.207Z,94976.84
2023-03-08T06:18:39.143Z,94963.69
2023-03-08T06:21:08.267Z,94973.53
2023-03-08T06:23:36.649Z,94972.53
2023-03-08T06:26:05.054Z,94969.75
2023-03-08T06:28:32.150Z,94977.59
2023-03-08T06:30:59.588Z,94983.84
2023-03-08T06:33:29.919Z,94985.03
2023-03-08T06:36:11.984Z,94979.25
2023-03-08T06:38:40.796Z,94985.88
2023-03-08T06:41:09.919Z,94973.84
2023-03-08T06:43:37.021Z,94979.84
2023-03-08T06:46:09.687Z,94975.06
2023-03-08T06:48:37.024Z,94970.66
2023-03-08T06:51:05.507Z,94975.44
2023-03-08T06:53:33.382Z,94969.41
2023-03-08T06:56:03.006Z,94972.19
2023-03-08T06:58:31.096Z,94991.88
2023-03-08T07:01:00.006Z,94975.03
2023-03-08T07:03:27.995Z,94985.44
2023-03-08T07:06:00.516Z,94985.44
2023-03-08T07:08:27.548Z,94986.22
2023-03-08T07:10:54.679Z,95002.88
2023-03-08T07:13:23.617Z,94991.81
2023-03-08T07:15:52.180Z,94999.44
2023-03-08T07:18:20.081Z,94989.78
2023-03-08T07:20:52.982Z,94980.13
2023-03-08T07:23:19.908Z,94989.75
2023-03-08T07:25:46.864Z,94990.94
2023-03-08T07:28:13.832Z,94983.25
2023-03-08T07:30:41.540Z,94996.47
2023-03-08T07:33:11.875Z,94990.81
2023-03-08T07:35:40.101Z,94991.16
2023-03-08T07:38:07.122Z,94988.31
2023-03-08T07:40:34.112Z,94990.69
2023-03-08T07:43:01.016Z,94993.88
2023-03-08T07:45:27.884Z,94987.75
2023-03-08T07:47:54.921Z,94992.09
2023-03-08T07:50:22.299Z,94984.78
2023-03-08T07:52:49.328Z,94972.72
2023-03-08T07:55:16.887Z,94981.13
2023-03-08T07:57:43.738Z,94971.03
2023-03-08T08:00:11.487Z,94975.03
2023-03-08T08:02:38.795Z,94979.53
2023-03-08T08:05:06.479Z,94954.53
2023-03-08T08:07:33.340Z,94958.47
2023-03-08T08:10:00.180Z,94954.34
2023-03-08T08:12:27.007Z,94942.53
2023-03-08T08:14:54.100Z,94931.63
2023-03-08T08:17:21.765Z,94932.22
2023-03-08T08:19:49.152Z,94916.81
2023-03-08T08:22:15.938Z,94906.00
2023-03-08T08:24:42.817Z,94907.59
2023-03-08T08:27:09.717Z,94900.53
2023-03-08T08:29:37.907Z,94902.38
2023-03-08T08:32:05.743Z,94904.88
2023-03-08T08:34:32.662Z,94885.84
2023-03-08T08:36:59.495Z,94879.81
2023-03-08T08:39:26.343Z,94867.16
2023-03-08T08:41:53.194Z,94867.97
2023-03-08T08:44:20.026Z,94872.63
2023-03-08T08:46:46.888Z,94874.13
2023-03-08T08:49:13.746Z,94869.31
2023-03-08T08:51:40.593Z,94867.84
2023-03-08T08:54:07.580Z,94856.78
2023-03-08T08:56:34.549Z,94838.53
2023-03-08T08:59:02.723Z,94835.78
2023-03-08T09:01:33.291Z,94831.47
2023-03-08T09:04:00.572Z,94819.72
2023-03-08T09:06:29.194Z,94808.19
2023-03-08T09:08:58.905Z,94804.66
2023-03-08T09:11:27.784Z,94787.69
2023-03-08T09:13:54.979Z,94778.44
2023-03-08T09:16:34.287Z,94783.88
2023-03-08T09:19:03.707Z,94773.56
2023-03-08T09:21:31.750Z,94768.22
2023-03-08T09:24:07.047Z,94756.81
2023-03-08T09:26:34.534Z,94758.34
2023-03-08T09:29:05.246Z,94746.50
2023-03-08T09:31:35.403Z,94748.56
2023-03-08T09:34:04.765Z,94749.41
2023-03-08T09:36:31.835Z,94746.88
2023-03-08T09:38:58.782Z,94753.81
2023-03-08T09:41:48.859Z,94753.91
2023-03-08T09:44:43.816Z,94761.13
2023-03-08T09:47:44.395Z,94748.16
2023-03-08T09:50:16.930Z,94750.50
2023-03-08T09:53:02.752Z,94747.72
2023-03-08T09:55:34.599Z,94745.44
2023-03-08T09:58:17.258Z,94733.09
2023-03-08T10:00:44.855Z,94743.50
2023-03-08T10:03:38.457Z,94743.81
2023-03-08T10:06:45.062Z,94756.25
2023-03-08T10:09:37.255Z,94742.88
2023-03-08T10:12:48.239Z,94738.16
2023-03-08T10:15:20.034Z,94721.66
2023-03-08T10:17:55.641Z,94729.41
2023-03-08T10:20:30.030Z,94741.63
2023-03-08T10:23:22.517Z,94730.75
2023-03-08T10:25:51.170Z,94725.34
2023-03-08T10:28:23.516Z,94728.72
2023-03-08T10:30:58.591Z,94725.59
2023-03-08T10:33:34.745Z,94732.53
2023-03-08T10:36:18.086Z,94729.44
2023-03-08T10:38:58.345Z,94737.91
2023-03-08T10:41:25.830Z,94724.59
2023-03-08T10:43:56.331Z,94733.13
2023-03-08T10:46:32.070Z,94753.63
2023-03-08T10:49:15.719Z,94742.19
2023-03-08T10:52:02.044Z,94733.66
2023-03-08T10:54:29.594Z,94739.84
2023-03-08T10:57:02.164Z,94730.28
2023-03-08T10:59:35.494Z,94730.78
2023-03-08T11:02:15.506Z,94720.81
2023-03-08T11:04:58.742Z,94733.53
2023-03-08T11:07:31.333Z,94723.16
2023-03-08T11:10:19.615Z,94717.56
2023-03-08T11:12:47.020Z,94713.88
2023-03-08T11:15:20.456Z,94722.03
2023-03-08T11:18:39.517Z,94707.84
2023-03-08T11:22:03.560Z,94703.41
2023-03-08T11:24:45.044Z,94695.91
2023-03-08T11:27:42.549Z,94691.47
2023-03-08T11:30:23.952Z,94685.75
2023-03-08T11:33:25.098Z,94677.22
2023-03-08T11:36:07.014Z,94679.06
2023-03-08T11:38:35.818Z,94678.72
2023-03-08T11:41:26.150Z,94661.84
2023-03-08T11:44:13.872Z,94664.06
2023-03-08T11:47:21.186Z,94635.41
2023-03-08T11:50:17.472Z,94631.06
2023-03-08T11:53:04.641Z,94625.69
2023-03-08T11:55:57.483Z,94621.16
2023-03-08T11:58:50.246Z,94611.84
2023-03-08T12:01:35.302Z,94617.66
2023-03-08T12:04:19.601Z,94623.63
2023-03-08T12:06:47.736Z,94607.69
2023-03-08T12:09:33.210Z,94598.78
2023-03-08T12:12:12.875Z,94596.81
2023-03-08T12:15:00.819Z,94589.66
2023-03-08T12:17:46.206Z,94594.78
2023-03-08T12:20:19.298Z,94584.31
2023-03-08T12:23:06.628Z,94584.03
2023-03-08T12:25:39.456Z,94581.47
2023-03-08T12:28:17.603Z,94576.53
2023-03-08T12:31:04.572Z,94568.78
2023-03-08T12:33:33.113Z,94577.31
2023-03-08T12:36:06.925Z,94572.84
2023-03-08T12:38:45.570Z,94570.03
2023-03-08T12:41:30.217Z,94576.41
2023-03-08T12:44:02.422Z,94572.78
2023-03-08T12:47:00.030Z,94551.81
2023-03-08T12:49:40.327Z,94559.50
2023-03-08T12:52:35.312Z,94554.88
2023-03-08T12:55:08.937Z,94549.88
2023-03-08T12:57:57.735Z,94541.19
2023-03-08T13:00:36.987Z,94552.53
2023-03-08T13:03:12.821Z,94541.97
2023-03-08T13:05:45.508Z,94545.66
2023-03-08T13:08:16.242Z,94553.44
2023-03-08T13:11:16.145Z,94558.91
2023-03-08T13:13:46.490Z,94559.41
2023-03-08T13:16:16.001Z,94552.59
2023-03-08T13:18:50.586Z,94554.69
2023-03-08T13:21:41.560Z,94559.31
2023-03-08T13:24:45.691Z,94548.72
2023-03-08T13:27:15.590Z,94558.88
2023-03-08T13:29:44.627Z,94555.34
2023-03-08T13:32:19.014Z,94558.50
2023-03-08T13:34:58.717Z,94548.19
2023-03-08T13:37:28.932Z,94563.41
2023-03-08T13:39:58.990Z,94564.75
2023-03-08T13:42:28.650Z,94559.00
2023-03-08T13:45:10.123Z,94551.59
2023-03-08T13:47:39.737Z,94554.28
2023-03-08T13:50:07.280Z,94544.47
2023-03-08T13:52:37.346Z,94537.91
2023-03-08T13:55:08.817Z,94544.78
2023-03-08T13:57:38.089Z,94549.00
2023-03-08T14:00:36.137Z,94524.72
2023-03-08T14:03:07.467Z,94536.81
2023-03-08T14:05:43.616Z,94529.97
2023-03-08T14:08:26.106Z,94531.03
2023-03-08T14:11:04.283Z,94519.94
2023-03-08T14:13:37.943Z,94518.28
2023-03-08T14:16:09.512Z,94523.59
2023-03-08T14:18:43.601Z,94544.50
2023-03-08T14:21:20.503Z,94522.56
2023-03-08T14:23:51.292Z,94514.44
2023-03-08T14:26:40.855Z,94509.19
2023-03-08T14:29:28.317Z,94515.94
2023-03-08T14:32:07.139Z,94494.16
2023-03-08T14:34:48.557Z,94521.88
2023-03-08T14:37:28.176Z,94518.72
2023-03-08T14:40:13.742Z,94520.16
2023-03-08T14:42:48.421Z,94507.66
2023-03-08T14:45:35.696Z,94519.06
2023-03-08T14:48:25.910Z,94529.84
2023-03-08T14:51:01.743Z,94515.88
2023-03-08T14:53:38.389Z,94522.28
2023-03-08T14:56:14.578Z,94506.31
2023-03-08T14:58:49.226Z,94503.66
2023-03-08T15:01:27.776Z,94495.03
2023-03-08T15:03:54.748Z,94495.09
2023-03-08T15:06:26.888Z,94496.03
2023-03-08T15:08:54.383Z,94488.47
2023-03-08T15:11:21.911Z,94507.84
2023-03-08T15:13:48.755Z,94488.13
2023-03-08T15:16:15.687Z,94479.75
2023-03-08T15:18:42.946Z,94487.28
2023-03-08T15:21:14.941Z,94481.31
2023-03-08T15:23:43.000Z,94484.00
2023-03-08T15:26:18.340Z,94475.06
2023-03-08T15:28:45.179Z,94482.97
2023-03-08T15:31:12.084Z,94461.31
2023-03-08T15:33:38.906Z,94475.59
2023-03-08T15:36:06.257Z,94465.16
2023-03-08T15:38:33.302Z,94463.06
2023-03-08T15:41:00.124Z,94460.41
2023-03-08T15:43:27.028Z,94455.91
2023-03-08T15:45:53.891Z,94440.91
2023-03-08T15:48:20.722Z,94448.41
2023-03-08T15:50:47.702Z,94440.34
2023-03-08T15:53:23.280Z,94442.63
2023-03-08T15:55:59.964Z,94441.38
2023-03-08T15:58:26.759Z,94447.09
2023-03-08T16:00:53.675Z,94430.72
2023-03-08T16:03:25.910Z,94421.75
2023-03-08T16:05:55.525Z,94433.75
2023-03-08T16:08:25.112Z,94417.34
2023-03-08T16:10:52.449Z,94424.59
2023-03-08T16:13:21.876Z,94405.81
2023-03-08T16:15:49.609Z,94412.78
2023-03-08T16:18:16.508Z,94405.00
2023-03-08T16:20:46.085Z,94417.81
2023-03-08T16:23:13.034Z,94404.06
2023-03-08T16:25:42.431Z,94408.31
2023-03-08T16:28:10.608Z,94409.44
2023-03-08T16:30:39.244Z,94414.78
2023-03-08T16:33:06.276Z,94412.66
2023-03-08T16:35:33.082Z,94409.50
2023-03-08T16:37:59.974Z,94408.94
2023-03-08T16:40:31.009Z,94399.44
2023-03-08T16:42:58.147Z,94393.63
2023-03-08T16:45:39.228Z,94397.34
2023-03-08T16:48:06.172Z,94400.53
2023-03-08T16:50:33.045Z,94397.31
2023-03-08T16:53:00.011Z,94399.97
2023-03-08T16:55:26.805Z,94400.50
2023-03-08T16:57:53.721Z,94408.44
2023-03-08T17:00:21.179Z,94403.94
2023-03-08T17:02:48.094Z,94415.28
2023-03-08T17:05:15.086Z,94407.38
2023-03-08T17:07:41.867Z,94406.84
2023-03-08T17:10:09.692Z,94411.63
2023-03-08T17:12:36.520Z,94413.72
2023-03-08T17:15:04.785Z,94417.41
2023-03-08T17:17:31.622Z,94420.31
2023-03-08T17:19:58.877Z,94419.50
2023-03-08T17:22:25.745Z,94404.69
2023-03-08T17:24:52.597Z,94412.13
2023-03-08T17:27:19.408Z,94419.53
2023-03-08T17:29:46.323Z,94413.72
2023-03-08T17:32:13.235Z,94412.94
2023-03-08T17:34:40.097Z,94418.47
2023-03-08T17:37:12.070Z,94425.31
2023-03-08T17:39:39.743Z,94420.56
2023-03-08T17:42:06.975Z,94425.22
2023-03-08T17:44:34.768Z,94429.31
2023-03-08T17:47:02.968Z,94432.19
2023-03-08T17:49:29.864Z,94435.88
2023-03-08T17:51:56.722Z,94433.22
2023-03-08T17:54:23.583Z,94435.34
2023-03-08T17:56:50.509Z,94430.53
2023-03-08T17:59:17.960Z,94425.34
2023-03-08T18:01:45.071Z,94441.50
2023-03-08T18:04:12.074Z,94432.38
2023-03-08T18:06:43.178Z,94444.59
2023-03-08T18:09:14.688Z,94439.00
2023-03-08T18:11:43.266Z,94449.38
2023-03-08T18:14:13.281Z,94453.84
2023-03-08T18:16:40.895Z,94446.75
2023-03-08T18:19:07.884Z,94462.34
2023-03-08T18:21:36.834Z,94458.63
2023-03-08T18:24:05.201Z,94460.75
2023-03-08T18:26:32.404Z,94464.94
2023-03-08T18:28:59.356Z,94467.63
2023-03-08T18:31:26.774Z,94461.53
2023-03-08T18:33:55.159Z,94464.97
2023-03-08T18:36:23.727Z,94466.03
2023-03-08T18:38:50.742Z,94446.47
2023-03-08T18:41:25.487Z,94458.63
2023-03-08T18:43:56.425Z,94459.69
2023-03-08T18:46:28.818Z,94465.22
2023-03-08T18:49:13.222Z,94470.50
2023-03-08T18:51:41.680Z,94458.88
2023-03-08T18:54:13.610Z,94458.06
2023-03-08T18:56:40.585Z,94462.81
2023-03-08T18:59:08.242Z,94468.66
2023-03-08T19:01:36.671Z,94457.84
2023-03-08T19:04:06.111Z,94471.19
2023-03-08T19:06:34.710Z,94465.94
2023-03-08T19:09:11.525Z,94468.09
2023-03-08T19:11:38.675Z,94463.38
2023-03-08T19:14:06.645Z,94471.00
2023-03-08T19:16:35.802Z,94484.38
2023-03-08T19:19:09.420Z,94483.69
2023-03-08T19:21:41.467Z,94482.31
2023-03-08T19:24:22.296Z,94499.78
2023-03-08T19:26:52.585Z,94488.13
2023-03-08T19:29:30.447Z,94486.03
2023-03-08T19:32:08.337Z,94507.47
2023-03-08T19:34:38.450Z,94487.66
2023-03-08T19:37:06.860Z,94497.97
2023-03-08T19:39:38.007Z,94508.06
2023-03-08T19:42:08.460Z,94493.28
2023-03-08T19:44:35.538Z,94497.94
2023-03-08T19:47:04.450Z,94493.09
2023-03-08T19:49:35.254Z,94516.97
2023-03-08T19:52:05.773Z,94514.44
2023-03-08T19:54:33.462Z,94529.69
2023-03-08T19:57:01.111Z,94522.38
2023-03-08T19:59:27.968Z,94529.84
2023-03-08T20:01:55.808Z,94532.50
2023-03-08T20:04:22.911Z,94539.84
2023-03-08T20:06:50.965Z,94519.22
2023-03-08T20:09:23.795Z,94516.84
2023-03-08T20:11:58.830Z,94517.84
2023-03-08T20:14:27.422Z,94526.25
2023-03-08T20:16:55.293Z,94526.13
2023-03-08T20:19:22.237Z,94557.06
2023-03-08T20:21:49.176Z,94560.94
2023-03-08T20:24:18.722Z,94550.47
2023-03-08T20:26:45.837Z,94545.06
2023-03-08T20:29:12.755Z,94553.09
2023-03-08T20:31:39.758Z,94533.06
2023-03-08T20:34:06.791Z,94531.50
2023-03-08T20:36:33.785Z,94529.84
2023-03-08T20:39:00.812Z,94522.22
2023-03-08T20:41:28.652Z,94514.84
2023-03-08T20:43:56.050Z,94503.81
2023-03-08T20:46:29.426Z,94505.94
2023-03-08T20:48:56.979Z,94492.84
2023-03-08T20:51:24.341Z,94475.19
2023-03-08T20:53:54.577Z,94506.47
2023-03-08T20:56:23.964Z,94493.59
2023-03-08T20:58:54.380Z,94500.22
2023-03-08T21:01:26.710Z,94502.00
2023-03-08T21:03:53.567Z,94495.94
2023-03-08T21:06:27.632Z,94485.91
2023-03-08T21:08:55.130Z,94472.81
2023-03-08T21:11:22.577Z,94472.34
2023-03-08T21:13:51.353Z,94465.94
2023-03-08T21:16:22.623Z,94458.22
2023-03-08T21:18:59.086Z,94442.47
2023-03-08T21:21:32.931Z,94455.53
2023-03-08T21:24:08.317Z,94459.06
2023-03-08T21:26:35.683Z,94459.59
2023-03-08T21:29:05.992Z,94445.06
2023-03-08T21:31:36.027Z,94460.88
2023-03-08T21:34:05.067Z,94456.09
2023-03-08T21:36:33.377Z,94456.94
2023-03-08T21:39:00.586Z,94455.13
2023-03-08T21:41:31.980Z,94457.22
2023-03-08T21:44:02.024Z,94443.03
2023-03-08T21:46:29.179Z,94450.66
2023-03-08T21:48:57.142Z,94451.25
2023-03-08T21:51:24.111Z,94436.94
2023-03-08T21:53:51.033Z,94437.50
2023-03-08T21:56:18.616Z,94441.31
2023-03-08T21:58:45.908Z,94436.63
2023-03-08T22:01:22.433Z,94426.41
2023-03-08T22:03:50.111Z,94442.75
2023-03-08T22:06:20.249Z,94444.63
2023-03-08T22:08:47.740Z,94440.41
2023-03-08T22:11:15.232Z,94446.09
2023-03-08T22:13:42.206Z,94457.91
2023-03-08T22:16:09.180Z,94427.59
2023-03-08T22:18:36.054Z,94438.13
2023-03-08T22:21:02.934Z,94434.22
2023-03-08T22:23:31.549Z,94441.34
2023-03-08T22:25:58.552Z,94434.13
2023-03-08T22:28:25.340Z,94417.56
2023-03-08T22:30:52.264Z,94409.66
2023-03-08T22:33:19.254Z,94414.25
2023-03-08T22:35:47.476Z,94405.31
2023-03-08T22:38:15.436Z,94409.69
2023-03-08T22:40:43.213Z,94398.22
2023-03-08T22:43:11.123Z,94404.03
2023-03-08T22:45:38.171Z,94406.97
2023-03-08T22:48:06.829Z,94394.28
2023-03-08T22:50:33.719Z,94390.34
2023-03-08T22:53:00.540Z,94388.72
2023-03-08T22:55:27.475Z,94391.09
2023-03-08T22:57:54.306Z,94381.59
2023-03-08T23:00:21.387Z,94380.25
2023-03-08T23:02:48.569Z,94390.81
2023-03-08T23:05:19.738Z,94393.41
2023-03-08T23:07:47.243Z,94396.03
2023-03-08T23:10:16.485Z,94398.91
2023-03-08T23:12:43.320Z,94408.09
2023-03-08T23:15:10.880Z,94391.81
2023-03-08T23:17:37.767Z,94407.59
2023-03-08T23:20:05.678Z,94404.88
2023-03-08T23:22:32.631Z,94401.22
2023-03-08T23:24:59.585Z,94396.38
2023-03-08T23:27:26.474Z,94390.31
2023-03-08T23:29:53.600Z,94391.66
2023-03-08T23:32:20.983Z,94394.19
2023-03-08T23:34:48.086Z,94398.88
2023-03-08T23:37:14.922Z,94404.25
2023-03-08T23:39:41.755Z,94402.19
2023-03-08T23:42:08.626Z,94399.56
2023-03-08T23:44:35.501Z,94399.00
2023-03-08T23:47:02.418Z,94398.44
2023-03-08T23:49:29.242Z,94386.06
2023-03-08T23:51:56.108Z,94379.81
2023-03-08T23:54:23.072Z,94386.41
2023-03-08T23:56:50.013Z,94389.97
2023-03-08T23:59:22.794Z,94388.38
